Time;durP1;ratioP1;P1;durP2;ratioP2;P2;SDS_P1;SDS_P2;PMS_P1;PMS_P2;Temp;Humidity;BMP_temperature;BMP_pressure;BME280_temperature;BME280_humidity;BME280_pressure;Samples;Min_cycle;Max_cycle;Signal;HPM_P1;HPM_P2
2021/12/29 00:00:27;;;;;;;7.10;1.60;;;8.70;99.90;;;;;;5021235;28;20256;-77
2021/12/29 00:02:55;;;;;;;8.50;2.10;;;8.60;99.90;;;;;;5003543;28;20194;-78
2021/12/29 00:05:22;;;;;;;10.97;2.97;;;8.70;99.90;;;;;;4993444;28;20725;-77
2021/12/29 00:07:48;;;;;;;7.83;1.70;;;8.70;99.90;;;;;;5016374;28;20175;-78
2021/12/29 00:10:15;;;;;;;9.30;1.87;;;8.60;99.90;;;;;;5017160;28;20199;-78
2021/12/29 00:12:45;;;;;;;8.93;2.13;;;8.70;99.90;;;;;;5017096;28;20184;-78
2021/12/29 00:15:13;;;;;;;10.87;2.87;;;8.70;99.90;;;;;;5016842;28;20211;-77
2021/12/29 00:17:42;;;;;;;8.73;1.67;;;8.70;99.90;;;;;;4999597;28;20202;-78
2021/12/29 00:20:09;;;;;;;11.73;2.10;;;8.60;99.90;;;;;;5017591;28;20170;-78
2021/12/29 00:22:35;;;;;;;10.47;2.60;;;8.70;99.90;;;;;;5016729;28;20193;-77
2021/12/29 00:25:02;;;;;;;11.83;2.43;;;8.70;99.90;;;;;;5016206;28;20575;-77
2021/12/29 00:27:28;;;;;;;14.60;2.70;;;8.60;99.90;;;;;;5016073;28;20256;-76
2021/12/29 00:29:53;;;;;;;7.60;2.13;;;8.70;99.90;;;;;;5017084;28;20651;-78
2021/12/29 00:32:19;;;;;;;7.43;2.20;;;8.60;99.90;;;;;;5017273;28;20170;-77
2021/12/29 00:37:13;;;;;;;11.60;2.00;;;8.50;99.90;;;;;;5003853;28;20311;-75
2021/12/29 00:39:38;;;;;;;12.43;2.70;;;8.50;99.90;;;;;;5011989;28;20671;-75
2021/12/29 00:42:04;;;;;;;8.43;1.97;;;8.50;99.90;;;;;;5003849;28;20558;-75
2021/12/29 00:44:32;;;;;;;9.53;2.20;;;8.40;99.90;;;;;;5009958;28;20222;-75
2021/12/29 00:46:58;;;;;;;18.17;2.53;;;8.40;99.90;;;;;;5013232;28;20674;-75
2021/12/29 00:49:31;;;;;;;10.93;2.37;;;8.40;99.90;;;;;;5012246;28;20645;-75
2021/12/29 00:51:57;;;;;;;9.07;2.00;;;8.40;99.90;;;;;;5013276;28;20188;-75
2021/12/29 00:54:22;;;;;;;10.70;2.07;;;8.40;99.90;;;;;;5009555;28;20178;-75
2021/12/29 00:56:48;;;;;;;7.57;1.70;;;8.40;99.90;;;;;;5011932;28;20197;-75
2021/12/29 00:59:14;;;;;;;7.90;1.97;;;8.40;99.90;;;;;;5013319;28;20173;-75
2021/12/29 01:01:39;;;;;;;14.43;2.33;;;8.40;99.90;;;;;;5021214;28;20276;-75
2021/12/29 01:04:05;;;;;;;9.07;1.70;;;8.40;99.90;;;;;;5029159;28;20193;-75
2021/12/29 01:06:31;;;;;;;12.70;2.57;;;8.40;99.90;;;;;;5014248;28;20260;-74
2021/12/29 01:08:57;;;;;;;9.90;2.97;;;8.40;99.90;;;;;;5028623;28;20197;-74
2021/12/29 01:11:23;;;;;;;12.93;2.17;;;8.40;99.90;;;;;;5012570;28;20718;-74
2021/12/29 01:13:50;;;;;;;15.00;2.50;;;8.50;99.90;;;;;;5016944;28;20185;-75
2021/12/29 01:19:11;;;;;;;11.23;2.10;;;8.50;99.90;;;;;;5017201;28;20560;-75
2021/12/29 01:21:39;;;;;;;11.50;2.10;;;8.40;99.90;;;;;;5016995;28;20175;-75
2021/12/29 01:24:06;;;;;;;8.07;2.00;;;8.40;99.90;;;;;;5016891;28;20178;-75
2021/12/29 01:26:32;;;;;;;8.40;1.70;;;8.40;99.90;;;;;;5016700;28;20673;-75
2021/12/29 01:28:58;;;;;;;7.03;1.60;;;8.40;99.90;;;;;;5016832;28;20197;-75
2021/12/29 01:31:24;;;;;;;7.93;1.83;;;8.40;99.90;;;;;;5003631;28;20184;-75
2021/12/29 01:33:49;;;;;;;5.97;1.47;;;8.40;99.90;;;;;;5016785;28;20193;-75
2021/12/29 01:36:15;;;;;;;10.40;2.40;;;8.40;99.90;;;;;;5016260;28;20717;-75
2021/12/29 01:38:41;;;;;;;10.43;1.83;;;8.40;99.90;;;;;;4999664;28;20193;-75
2021/12/29 01:41:06;;;;;;;11.50;1.80;;;8.30;99.90;;;;;;4993843;28;20236;-75
2021/12/29 01:43:32;;;;;;;10.60;1.80;;;8.40;99.90;;;;;;4980051;28;20558;-75
2021/12/29 01:45:57;;;;;;;8.83;2.00;;;8.30;99.90;;;;;;4977177;28;20650;-75
2021/12/29 01:48:23;;;;;;;9.53;1.57;;;8.30;99.90;;;;;;4979068;28;20303;-75
2021/12/29 01:50:51;;;;;;;10.50;1.80;;;8.30;99.90;;;;;;4993357;28;20598;-75
2021/12/29 01:53:31;;;;;;;9.50;2.10;;;8.40;99.90;;;;;;4976039;28;20282;-75
2021/12/29 01:55:57;;;;;;;7.17;1.53;;;8.30;99.90;;;;;;4996168;28;20214;-75
2021/12/29 01:58:24;;;;;;;10.50;2.00;;;8.30;99.90;;;;;;4996353;28;20179;-75
2021/12/29 02:00:52;;;;;;;14.03;2.17;;;8.30;99.90;;;;;;4978591;28;20182;-75
2021/12/29 02:03:18;;;;;;;9.80;2.30;;;8.30;99.90;;;;;;4979043;28;20558;-75
2021/12/29 02:05:44;;;;;;;9.33;1.77;;;8.30;99.90;;;;;;4984610;28;20288;-77
2021/12/29 02:08:11;;;;;;;11.47;1.67;;;8.30;99.90;;;;;;5017862;28;20175;-76
2021/12/29 02:10:46;;;;;;;7.23;1.70;;;8.30;99.90;;;;;;5017285;28;20179;-77
2021/12/29 02:13:14;;;;;;;10.80;2.17;;;8.30;99.90;;;;;;5016781;28;20595;-77
2021/12/29 02:15:40;;;;;;;10.17;2.70;;;8.30;99.90;;;;;;4998129;28;20217;-76
2021/12/29 02:18:15;;;;;;;11.43;2.00;;;8.30;99.90;;;;;;4982580;28;20191;-74
2021/12/29 02:20:47;;;;;;;10.27;1.80;;;8.30;99.90;;;;;;4980333;28;20178;-76
2021/12/29 02:23:27;;;;;;;8.57;1.87;;;8.30;99.90;;;;;;4994589;28;20258;-77
2021/12/29 02:25:55;;;;;;;9.33;1.77;;;8.30;99.90;;;;;;4978869;28;20264;-76
2021/12/29 02:28:34;;;;;;;10.50;1.90;;;8.30;99.90;;;;;;4994880;28;20183;-75
2021/12/29 02:31:02;;;;;;;7.13;1.60;;;8.30;99.90;;;;;;4980098;28;20185;-76
2021/12/29 02:33:30;;;;;;;10.57;2.30;;;8.20;99.90;;;;;;4993237;28;20183;-76
2021/12/29 02:35:58;;;;;;;6.63;1.43;;;8.30;99.90;;;;;;4998238;28;20690;-76
2021/12/29 02:38:28;;;;;;;8.67;1.63;;;8.40;99.90;;;;;;4997245;28;20291;-76
2021/12/29 02:40:58;;;;;;;11.10;2.00;;;8.40;99.90;;;;;;4977895;28;20224;-76
2021/12/29 02:43:24;;;;;;;10.60;2.00;;;8.30;99.90;;;;;;4981013;28;20783;-76
2021/12/29 02:45:58;;;;;;;8.63;1.60;;;8.30;99.90;;;;;;4997092;28;20541;-76
2021/12/29 02:48:29;;;;;;;12.43;1.73;;;8.30;99.90;;;;;;4980504;28;20193;-75
2021/12/29 02:50:56;;;;;;;9.17;1.90;;;8.30;99.90;;;;;;4977744;28;20179;-75
2021/12/29 02:53:26;;;;;;;9.10;1.67;;;8.30;99.90;;;;;;5009167;28;20185;-75
2021/12/29 02:55:55;;;;;;;6.63;1.80;;;8.30;99.90;;;;;;5015243;28;20223;-75
2021/12/29 02:58:23;;;;;;;7.27;1.50;;;8.30;99.90;;;;;;4997963;28;20186;-77
2021/12/29 03:00:50;;;;;;;10.23;2.00;;;8.30;99.90;;;;;;4985532;28;20555;-75
2021/12/29 03:03:18;;;;;;;4.50;1.40;;;8.30;99.90;;;;;;4969394;28;20194;-76
2021/12/29 03:05:45;;;;;;;9.53;1.87;;;8.30;99.90;;;;;;4985236;28;20205;-76
2021/12/29 03:08:12;;;;;;;9.60;1.83;;;8.40;99.90;;;;;;5013161;28;20203;-75
2021/12/29 03:10:38;;;;;;;11.63;2.03;;;8.30;99.90;;;;;;5013599;28;20184;-75
2021/12/29 03:13:04;;;;;;;7.83;1.30;;;8.30;99.90;;;;;;5014697;28;20211;-75
2021/12/29 03:15:30;;;;;;;4.87;1.23;;;8.30;99.90;;;;;;5014407;28;20236;-75
2021/12/29 03:17:56;;;;;;;5.63;1.67;;;8.30;99.90;;;;;;4997096;28;20670;-75
2021/12/29 03:20:21;;;;;;;6.53;1.50;;;8.30;99.90;;;;;;5014758;28;20568;-75
2021/12/29 03:22:47;;;;;;;4.70;1.20;;;8.30;99.90;;;;;;5014498;28;20615;-74
2021/12/29 03:25:13;;;;;;;10.53;1.70;;;8.20;99.90;;;;;;4997544;28;20197;-75
2021/12/29 03:27:38;;;;;;;8.43;1.40;;;8.20;99.90;;;;;;5014671;28;20179;-76
2021/12/29 03:30:04;;;;;;;3.80;1.13;;;8.20;99.90;;;;;;4987866;28;20187;-75
2021/12/29 03:32:49;;;;;;;5.73;1.80;;;8.20;99.90;;;;;;4987653;28;20659;-76
2021/12/29 03:35:15;;;;;;;9.53;1.70;;;8.20;99.90;;;;;;4996407;28;20590;-75
2021/12/29 03:37:41;;;;;;;11.63;1.50;;;8.20;99.90;;;;;;5014247;28;20206;-75
2021/12/29 03:40:07;;;;;;;8.47;1.40;;;8.20;99.90;;;;;;5014448;28;20189;-75
2021/12/29 03:42:34;;;;;;;9.13;1.60;;;8.20;99.90;;;;;;5014286;28;20188;-75
2021/12/29 03:44:59;;;;;;;8.83;1.60;;;8.20;99.90;;;;;;5013988;28;20673;-76
2021/12/29 03:47:25;;;;;;;7.77;1.90;;;8.20;99.90;;;;;;4983211;28;20186;-75
2021/12/29 03:49:51;;;;;;;7.53;1.53;;;8.20;99.90;;;;;;5008555;28;20186;-75
2021/12/29 03:52:16;;;;;;;5.43;1.00;;;8.20;99.90;;;;;;5013977;28;20218;-76
2021/12/29 03:54:42;;;;;;;6.77;1.30;;;8.20;99.90;;;;;;4996330;28;20213;-75
2021/12/29 03:57:08;;;;;;;6.53;1.57;;;8.20;99.90;;;;;;5013883;28;20201;-76
2021/12/29 03:59:34;;;;;;;8.60;1.73;;;8.10;99.90;;;;;;4995655;28;20185;-77
2021/12/29 04:02:00;;;;;;;5.10;1.37;;;8.10;99.90;;;;;;5010889;28;20269;-75
2021/12/29 04:04:26;;;;;;;4.37;1.07;;;8.10;99.90;;;;;;4996908;28;20189;-76
2021/12/29 04:06:55;;;;;;;4.93;1.40;;;8.10;99.90;;;;;;5014570;28;20199;-76
2021/12/29 04:09:22;;;;;;;6.67;1.17;;;8.20;99.90;;;;;;5014731;28;20230;-78
2021/12/29 04:11:51;;;;;;;4.17;1.40;;;8.10;99.90;;;;;;4996535;28;20547;-75
2021/12/29 04:14:19;;;;;;;5.40;1.60;;;8.20;99.90;;;;;;5012172;28;20261;-75
2021/12/29 04:16:47;;;;;;;7.50;1.57;;;8.20;99.90;;;;;;4988157;28;20205;-76
2021/12/29 04:19:29;;;;;;;6.47;1.40;;;8.10;99.90;;;;;;4999386;28;20267;-76
2021/12/29 04:21:56;;;;;;;7.43;1.20;;;8.20;99.90;;;;;;5006618;28;20180;-75
2021/12/29 04:24:28;;;;;;;2.67;1.00;;;8.30;99.90;;;;;;4996720;28;20266;-77
2021/12/29 04:26:53;;;;;;;6.30;1.43;;;8.30;99.90;;;;;;5014247;28;20198;-75
2021/12/29 04:29:19;;;;;;;3.50;1.27;;;8.30;99.90;;;;;;5014065;28;20235;-75
2021/12/29 04:31:45;;;;;;;6.17;1.10;;;8.30;99.90;;;;;;5003887;28;20183;-75
2021/12/29 04:34:11;;;;;;;5.03;0.90;;;8.30;99.90;;;;;;5014275;28;20555;-76
2021/12/29 04:36:37;;;;;;;5.77;1.80;;;8.30;99.90;;;;;;5014021;28;20687;-77
2021/12/29 04:39:05;;;;;;;7.00;1.63;;;8.30;99.90;;;;;;4996771;28;20188;-76
2021/12/29 04:41:30;;;;;;;4.70;1.30;;;8.30;99.90;;;;;;5014078;28;20209;-75
2021/12/29 04:43:56;;;;;;;9.00;1.50;;;8.30;99.90;;;;;;5013353;28;20287;-75
2021/12/29 04:46:28;;;;;;;5.27;1.53;;;8.30;99.90;;;;;;5012879;28;20202;-75
2021/12/29 04:49:00;;;;;;;8.60;1.27;;;8.30;99.90;;;;;;5017954;28;20177;-76
2021/12/29 04:51:34;;;;;;;9.40;1.40;;;8.30;99.90;;;;;;5017750;28;20655;-75
2021/12/29 04:54:00;;;;;;;8.03;2.03;;;8.30;99.90;;;;;;5017650;28;20249;-75
2021/12/29 04:56:26;;;;;;;4.93;1.27;;;8.20;99.90;;;;;;4999619;28;20220;-75
2021/12/29 04:58:52;;;;;;;6.43;1.50;;;8.30;99.90;;;;;;5017335;28;20178;-75
2021/12/29 05:01:18;;;;;;;7.67;1.60;;;8.30;99.90;;;;;;5001246;28;20187;-75
2021/12/29 05:03:44;;;;;;;7.67;1.93;;;8.30;99.90;;;;;;4986612;28;20180;-75
2021/12/29 05:08:37;;;;;;;8.87;1.40;;;8.40;99.90;;;;;;5005795;28;20196;-75
2021/12/29 05:11:06;;;;;;;6.77;1.57;;;8.40;99.90;;;;;;5016137;28;20179;-75
2021/12/29 05:13:34;;;;;;;6.60;1.37;;;8.40;99.90;;;;;;4999365;28;20196;-75
2021/12/29 05:16:00;;;;;;;4.97;1.40;;;8.40;99.90;;;;;;5016661;28;20720;-75
2021/12/29 05:18:30;;;;;;;11.23;1.80;;;8.30;99.90;;;;;;5000343;28;20188;-75
2021/12/29 05:20:58;;;;;;;5.53;1.70;;;8.40;99.90;;;;;;4999503;28;20173;-77
2021/12/29 05:23:24;;;;;;;10.17;1.63;;;8.40;99.90;;;;;;4999567;28;20207;-76
2021/12/29 05:25:50;;;;;;;5.30;1.63;;;8.30;99.90;;;;;;5018125;28;20206;-75
2021/12/29 05:28:17;;;;;;;5.27;1.37;;;8.30;99.90;;;;;;5020266;28;20290;-76
2021/12/29 05:30:44;;;;;;;8.30;1.60;;;8.40;99.90;;;;;;4989260;28;20193;-76
2021/12/29 05:33:10;;;;;;;9.70;1.73;;;8.40;99.90;;;;;;5002386;28;20215;-75
2021/12/29 05:35:36;;;;;;;9.80;2.30;;;8.30;99.90;;;;;;5020812;28;20207;-76
2021/12/29 05:38:03;;;;;;;9.17;1.70;;;8.30;99.90;;;;;;5004676;28;20233;-76
2021/12/29 05:40:29;;;;;;;6.97;1.47;;;8.30;99.90;;;;;;5020976;28;20265;-75
2021/12/29 05:42:57;;;;;;;6.27;1.10;;;8.40;99.90;;;;;;5015164;28;20210;-75
2021/12/29 05:45:25;;;;;;;9.83;1.30;;;8.30;99.90;;;;;;5014107;28;20199;-77
2021/12/29 05:47:51;;;;;;;5.47;0.93;;;8.40;99.90;;;;;;4981353;28;20646;-77
2021/12/29 05:50:21;;;;;;;7.23;1.30;;;8.30;99.90;;;;;;5015328;28;20661;-75
2021/12/29 05:52:47;;;;;;;3.67;0.93;;;8.30;99.90;;;;;;4999893;28;20190;-76
2021/12/29 05:55:13;;;;;;;9.47;1.40;;;8.30;99.90;;;;;;4999457;28;20301;-76
2021/12/29 05:57:39;;;;;;;4.73;1.23;;;8.30;99.90;;;;;;4999281;28;20181;-76
2021/12/29 06:00:09;;;;;;;9.67;1.80;;;8.30;99.90;;;;;;5012148;28;20652;-76
2021/12/29 06:02:34;;;;;;;8.70;1.13;;;8.30;99.90;;;;;;5017039;28;20541;-76
2021/12/29 06:05:00;;;;;;;6.57;1.10;;;8.30;99.90;;;;;;4997869;28;20276;-75
2021/12/29 06:07:26;;;;;;;8.60;1.53;;;8.30;99.90;;;;;;5012426;28;20190;-76
2021/12/29 06:09:52;;;;;;;8.00;1.27;;;8.30;99.90;;;;;;4991236;28;20185;-75
2021/12/29 06:12:17;;;;;;;6.90;1.63;;;8.30;99.90;;;;;;4988854;28;20218;-76
2021/12/29 06:14:47;;;;;;;8.17;1.40;;;8.30;99.90;;;;;;4996083;28;20197;-76
2021/12/29 06:17:14;;;;;;;5.13;1.10;;;8.30;99.90;;;;;;4981974;28;20226;-76
2021/12/29 06:19:40;;;;;;;6.07;1.30;;;8.30;99.90;;;;;;4997693;28;20192;-76
2021/12/29 06:22:10;;;;;;;5.80;1.30;;;8.20;99.90;;;;;;4997906;28;20211;-76
2021/12/29 06:24:40;;;;;;;7.43;1.47;;;8.20;99.90;;;;;;4997764;28;20284;-76
2021/12/29 06:27:06;;;;;;;6.27;1.07;;;8.20;99.90;;;;;;4997844;28;20720;-76
2021/12/29 06:29:32;;;;;;;9.37;1.80;;;8.20;99.90;;;;;;4997129;28;20216;-76
2021/12/29 06:31:58;;;;;;;7.57;1.57;;;8.20;99.90;;;;;;5007128;28;20191;-77
2021/12/29 06:34:24;;;;;;;5.93;1.47;;;8.20;99.90;;;;;;5014905;28;20194;-76
2021/12/29 06:36:49;;;;;;;9.57;1.60;;;8.20;99.90;;;;;;5014582;28;20225;-75
2021/12/29 06:39:15;;;;;;;13.80;2.27;;;8.20;99.90;;;;;;5017273;28;20302;-77
2021/12/29 06:41:41;;;;;;;9.00;2.00;;;8.20;99.90;;;;;;5015440;28;20328;-77
2021/12/29 06:44:12;;;;;;;12.90;2.20;;;8.20;99.90;;;;;;5015531;28;20189;-75
2021/12/29 06:46:38;;;;;;;11.20;1.93;;;8.10;99.90;;;;;;4998290;28;20214;-76
2021/12/29 06:49:04;;;;;;;10.10;1.90;;;8.20;99.90;;;;;;5015476;28;20236;-75
2021/12/29 06:51:31;;;;;;;13.00;2.40;;;8.10;99.90;;;;;;4984520;28;20199;-77
2021/12/29 06:53:57;;;;;;;14.03;1.90;;;8.20;99.90;;;;;;4984180;28;20212;-76
2021/12/29 06:56:23;;;;;;;6.10;1.70;;;8.20;99.90;;;;;;4997752;28;20214;-76
2021/12/29 06:58:48;;;;;;;9.47;1.70;;;8.20;99.90;;;;;;5015336;28;20192;-76
2021/12/29 07:01:16;;;;;;;12.07;2.43;;;8.20;99.90;;;;;;5010237;28;20195;-77
2021/12/29 07:03:43;;;;;;;9.30;2.10;;;8.10;99.90;;;;;;4997585;28;20190;-76
2021/12/29 07:06:08;;;;;;;11.37;2.10;;;8.20;99.90;;;;;;4997748;28;20285;-76
2021/12/29 07:08:34;;;;;;;11.93;2.10;;;8.20;99.90;;;;;;5014785;28;20189;-77
2021/12/29 07:11:01;;;;;;;8.37;2.00;;;8.10;99.90;;;;;;4997016;28;20192;-77
2021/12/29 07:13:27;;;;;;;10.83;1.90;;;8.20;99.90;;;;;;4998051;28;20186;-78
2021/12/29 07:15:52;;;;;;;10.97;2.13;;;8.20;99.90;;;;;;4996774;28;20587;-76
2021/12/29 07:18:18;;;;;;;9.33;1.90;;;8.10;99.90;;;;;;4996902;28;20202;-76
2021/12/29 07:20:44;;;;;;;16.20;2.20;;;8.20;99.90;;;;;;4997273;28;20520;-75
2021/12/29 07:23:11;;;;;;;15.53;1.87;;;8.20;99.90;;;;;;5015023;28;20180;-76
2021/12/29 07:25:37;;;;;;;10.47;1.90;;;8.30;99.90;;;;;;4998443;28;20206;-76
2021/12/29 07:28:03;;;;;;;11.87;2.10;;;8.20;99.90;;;;;;5001271;28;20257;-77
2021/12/29 07:30:28;;;;;;;6.53;1.57;;;8.20;99.90;;;;;;4984880;28;20187;-76
2021/12/29 07:32:54;;;;;;;12.73;2.87;;;8.10;99.90;;;;;;5010879;28;20180;-76
2021/12/29 07:35:20;;;;;;;7.13;2.03;;;8.10;99.90;;;;;;4995570;28;20241;-77
2021/12/29 07:37:46;;;;;;;8.33;1.50;;;8.10;99.90;;;;;;5013390;28;20678;-76
2021/12/29 07:40:12;;;;;;;8.10;1.50;;;8.20;99.90;;;;;;4991979;28;20186;-77
2021/12/29 07:42:39;;;;;;;12.77;2.40;;;8.20;99.90;;;;;;4996081;28;20192;-75
2021/12/29 07:45:08;;;;;;;13.20;2.10;;;8.20;99.90;;;;;;4995088;28;20229;-76
2021/12/29 07:47:35;;;;;;;11.57;2.27;;;8.20;99.90;;;;;;4974488;28;20662;-77
2021/12/29 07:50:01;;;;;;;16.33;2.83;;;8.20;99.90;;;;;;5008122;28;20674;-77
2021/12/29 07:52:27;;;;;;;6.93;2.50;;;8.20;99.90;;;;;;4990048;28;20187;-74
2021/12/29 07:54:53;;;;;;;14.13;2.53;;;8.20;99.90;;;;;;4976134;28;20209;-76
2021/12/29 07:57:19;;;;;;;8.63;2.30;;;8.30;99.90;;;;;;4979832;28;20269;-74
2021/12/29 07:59:45;;;;;;;11.70;3.20;;;8.30;99.90;;;;;;4976025;28;20256;-74
2021/12/29 08:02:27;;;;;;;12.27;2.57;;;8.30;99.90;;;;;;4975696;28;20179;-76
2021/12/29 08:04:54;;;;;;;19.37;2.37;;;8.30;99.90;;;;;;4973521;28;20182;-78
2021/12/29 08:07:21;;;;;;;15.37;1.80;;;8.30;99.90;;;;;;4991112;28;20282;-76
2021/12/29 08:09:47;;;;;;;12.77;2.77;;;8.30;99.90;;;;;;4990221;28;20190;-76
2021/12/29 08:12:15;;;;;;;12.20;2.20;;;8.50;99.90;;;;;;4991117;28;20234;-77
2021/12/29 08:14:41;;;;;;;14.50;3.40;;;8.30;99.90;;;;;;4990450;28;20238;-76
2021/12/29 08:17:07;;;;;;;12.37;2.63;;;8.30;99.90;;;;;;4993508;28;20200;-76
2021/12/29 08:19:33;;;;;;;13.47;2.70;;;8.30;99.90;;;;;;4975197;28;20266;-75
2021/12/29 08:21:59;;;;;;;15.57;4.63;;;8.40;99.90;;;;;;4973812;28;20694;-75
2021/12/29 08:24:25;;;;;;;16.10;2.60;;;8.30;99.90;;;;;;4974000;28;20182;-77
2021/12/29 08:26:51;;;;;;;13.07;2.20;;;8.40;99.90;;;;;;4974474;28;20195;-74
2021/12/29 08:29:16;;;;;;;16.67;2.97;;;8.40;99.90;;;;;;4995125;28;20228;-74
2021/12/29 08:31:42;;;;;;;15.67;2.83;;;8.40;99.90;;;;;;4994922;28;20183;-75
2021/12/29 08:34:08;;;;;;;19.37;4.00;;;8.30;99.90;;;;;;4995947;28;20179;-75
2021/12/29 08:36:33;;;;;;;10.50;2.73;;;8.30;99.90;;;;;;4995016;28;20215;-74
2021/12/29 08:38:59;;;;;;;16.93;4.10;;;8.40;99.90;;;;;;4991339;28;20219;-75
2021/12/29 08:41:25;;;;;;;15.07;3.20;;;8.40;99.90;;;;;;4974836;28;20178;-75
2021/12/29 08:43:50;;;;;;;16.87;3.03;;;8.40;99.90;;;;;;4998782;28;20248;-75
2021/12/29 08:46:17;;;;;;;16.07;3.23;;;8.50;99.90;;;;;;5011957;28;20202;-75
2021/12/29 08:48:43;;;;;;;20.10;3.30;;;8.50;99.90;;;;;;4994929;28;20561;-76
2021/12/29 08:51:09;;;;;;;23.90;3.60;;;8.60;99.90;;;;;;5012628;28;20217;-76
2021/12/29 08:53:36;;;;;;;12.40;4.07;;;8.60;99.90;;;;;;4986672;28;20615;-77
2021/12/29 08:56:02;;;;;;;17.03;3.27;;;8.70;99.90;;;;;;4990540;28;20700;-78
2021/12/29 08:58:28;;;;;;;14.43;3.87;;;8.70;99.90;;;;;;4994160;28;20655;-76
2021/12/29 09:00:55;;;;;;;15.50;3.37;;;8.70;99.90;;;;;;4991942;28;20183;-76
2021/12/29 09:03:22;;;;;;;13.23;3.63;;;8.70;99.90;;;;;;4993890;28;20171;-76
2021/12/29 09:05:48;;;;;;;10.47;2.37;;;8.80;99.90;;;;;;4980354;28;20199;-76
2021/12/29 09:08:17;;;;;;;9.13;2.13;;;8.80;99.90;;;;;;4991327;28;20183;-77
2021/12/29 09:10:44;;;;;;;7.90;2.03;;;8.70;99.90;;;;;;4988955;28;20271;-77
2021/12/29 09:13:11;;;;;;;4.07;1.30;;;8.80;99.90;;;;;;4975252;28;20636;-75
2021/12/29 09:15:36;;;;;;;6.70;1.47;;;8.80;99.90;;;;;;4974898;28;20222;-75
2021/12/29 09:18:03;;;;;;;8.03;1.60;;;8.80;99.90;;;;;;4980875;28;20256;-75
2021/12/29 09:20:32;;;;;;;5.80;1.40;;;8.80;99.90;;;;;;4993627;28;20623;-75
2021/12/29 09:23:07;;;;;;;3.80;1.10;;;8.70;99.90;;;;;;5011681;28;20644;-76
2021/12/29 09:25:36;;;;;;;4.97;0.93;;;8.80;99.90;;;;;;4982685;28;20234;-76
2021/12/29 09:28:03;;;;;;;2.97;1.10;;;8.80;99.90;;;;;;4985716;28;20186;-77
2021/12/29 09:30:33;;;;;;;3.87;1.40;;;8.70;99.90;;;;;;4976106;28;20200;-77
2021/12/29 09:32:59;;;;;;;4.57;1.80;;;8.80;99.90;;;;;;4995785;28;20210;-78
2021/12/29 09:35:25;;;;;;;3.33;1.30;;;8.70;99.90;;;;;;4970838;28;1142531;-75
2021/12/29 09:37:52;;;;;;;4.07;1.40;;;8.80;99.90;;;;;;5015836;28;20174;-76
2021/12/29 09:40:21;;;;;;;1.37;0.90;;;8.70;99.90;;;;;;5009240;28;20176;-76
2021/12/29 09:42:52;;;;;;;3.87;1.17;;;8.70;99.90;;;;;;5014544;28;20185;-77
2021/12/29 09:45:18;;;;;;;2.23;0.90;;;8.80;99.90;;;;;;4995021;28;20202;-77
2021/12/29 09:47:45;;;;;;;3.90;0.70;;;8.80;99.90;;;;;;5010497;28;20222;-75
2021/12/29 09:50:14;;;;;;;1.30;0.40;;;8.70;99.90;;;;;;5020181;28;20240;-76
2021/12/29 09:52:42;;;;;;;1.37;1.00;;;8.70;99.90;;;;;;4999825;28;20191;-77
2021/12/29 09:55:11;;;;;;;2.10;0.90;;;8.60;99.90;;;;;;5000368;28;20221;-76
2021/12/29 09:57:44;;;;;;;1.27;0.57;;;8.60;99.90;;;;;;4996934;28;20192;-75
2021/12/29 10:00:21;;;;;;;1.03;0.50;;;8.60;99.90;;;;;;4989072;28;20184;-75
2021/12/29 10:02:48;;;;;;;2.10;0.43;;;8.60;99.90;;;;;;5006187;28;20185;-76
2021/12/29 10:05:14;;;;;;;2.23;0.80;;;8.50;99.90;;;;;;5004615;28;20222;-76
2021/12/29 10:07:41;;;;;;;1.30;0.90;;;8.40;99.90;;;;;;5000892;28;20190;-75
2021/12/29 10:10:21;;;;;;;1.73;0.67;;;8.30;99.90;;;;;;5000000;28;20203;-76
2021/12/29 10:12:47;;;;;;;1.33;0.40;;;8.30;99.90;;;;;;4976662;28;20178;-75
2021/12/29 10:15:14;;;;;;;0.63;0.37;;;8.20;99.90;;;;;;4995981;28;20205;-76
2021/12/29 10:17:40;;;;;;;0.60;0.50;;;8.20;99.90;;;;;;4998470;28;20213;-77
2021/12/29 10:20:10;;;;;;;1.90;0.40;;;8.20;99.90;;;;;;4991462;28;20698;-77
2021/12/29 10:22:36;;;;;;;0.97;0.63;;;8.10;99.90;;;;;;5004401;28;20560;-77
2021/12/29 10:25:07;;;;;;;0.70;0.40;;;8.10;99.90;;;;;;4992683;28;20189;-76
2021/12/29 10:27:38;;;;;;;0.73;0.40;;;8.10;99.90;;;;;;4982580;28;20329;-76
2021/12/29 10:30:23;;;;;;;0.83;0.37;;;8.00;99.90;;;;;;4997719;28;20237;-76
2021/12/29 10:32:50;;;;;;;1.13;0.50;;;7.90;99.90;;;;;;5014493;28;20260;-76
2021/12/29 10:35:25;;;;;;;1.33;0.40;;;7.90;99.90;;;;;;5006357;28;20260;-77
2021/12/29 10:37:53;;;;;;;0.30;0.30;;;7.90;99.90;;;;;;5012734;28;20667;-76
2021/12/29 10:40:30;;;;;;;0.70;0.27;;;7.90;99.90;;;;;;4985904;28;20255;-76
2021/12/29 10:42:59;;;;;;;1.10;0.30;;;7.90;99.90;;;;;;4975863;28;20191;-75
2021/12/29 10:45:37;;;;;;;0.83;0.37;;;7.90;99.90;;;;;;4998844;28;20205;-76
2021/12/29 10:48:17;;;;;;;0.77;0.40;;;7.90;99.90;;;;;;4978494;28;20194;-75
2021/12/29 10:51:02;;;;;;;0.83;0.40;;;7.90;99.90;;;;;;4995590;28;20183;-75
2021/12/29 10:53:29;;;;;;;0.53;0.20;;;7.90;99.90;;;;;;5009717;28;20209;-76
2021/12/29 10:55:55;;;;;;;0.50;0.30;;;7.90;99.90;;;;;;4993249;28;20237;-76
2021/12/29 10:58:24;;;;;;;0.30;0.30;;;8.00;99.90;;;;;;5009195;28;20182;-75
2021/12/29 11:00:57;;;;;;;0.77;0.53;;;7.90;99.90;;;;;;4988000;28;20189;-75
2021/12/29 11:03:25;;;;;;;1.77;0.40;;;7.90;99.90;;;;;;4987781;28;20176;-76
2021/12/29 11:05:58;;;;;;;1.50;0.67;;;7.90;99.90;;;;;;5002283;28;20199;-75
2021/12/29 11:08:26;;;;;;;1.00;0.47;;;7.80;99.90;;;;;;4989731;28;20601;-76
2021/12/29 11:10:56;;;;;;;0.60;0.40;;;7.80;99.90;;;;;;4998012;28;20178;-76
2021/12/29 11:13:29;;;;;;;0.80;0.50;;;7.80;99.90;;;;;;4998302;28;20231;-74
2021/12/29 11:15:57;;;;;;;0.80;0.33;;;7.70;99.90;;;;;;4996754;28;20621;-73
2021/12/29 11:18:23;;;;;;;0.70;0.40;;;7.70;99.90;;;;;;4996922;28;20644;-73
2021/12/29 11:20:58;;;;;;;0.67;0.40;;;7.80;99.90;;;;;;4987614;28;20186;-73
2021/12/29 11:23:24;;;;;;;0.60;0.40;;;7.80;99.90;;;;;;5014013;28;20181;-75
2021/12/29 11:25:51;;;;;;;0.37;0.33;;;7.80;99.90;;;;;;4994991;28;20600;-74
2021/12/29 11:28:20;;;;;;;0.47;0.30;;;7.80;99.90;;;;;;4985701;28;20229;-74
2021/12/29 11:30:46;;;;;;;0.53;0.37;;;7.80;99.90;;;;;;5005388;28;20178;-74
2021/12/29 11:33:13;;;;;;;0.50;0.50;;;7.80;99.90;;;;;;4985060;28;20690;-73
2021/12/29 11:35:53;;;;;;;0.77;0.40;;;7.80;99.90;;;;;;4997200;28;20229;-74
2021/12/29 11:38:21;;;;;;;1.00;0.33;;;7.80;99.90;;;;;;4970517;28;20227;-73
2021/12/29 11:40:51;;;;;;;0.40;0.37;;;7.90;99.90;;;;;;5004901;28;20262;-74
2021/12/29 11:43:19;;;;;;;2.47;0.50;;;7.90;99.90;;;;;;4979717;28;20232;-74
2021/12/29 11:45:48;;;;;;;0.37;0.37;;;7.80;99.90;;;;;;4974930;28;20209;-74
2021/12/29 11:48:17;;;;;;;1.23;0.70;;;7.60;99.90;;;;;;4976577;28;20185;-73
2021/12/29 11:51:03;;;;;;;2.10;0.80;;;7.50;99.90;;;;;;4978847;28;20189;-73
2021/12/29 11:53:49;;;;;;;3.10;1.00;;;7.50;99.90;;;;;;4979055;28;20683;-74
2021/12/29 11:56:19;;;;;;;1.20;0.83;;;7.40;99.90;;;;;;4995044;28;20206;-73
2021/12/29 11:58:46;;;;;;;1.30;0.60;;;7.30;99.90;;;;;;4992847;28;20655;-73
2021/12/29 12:01:16;;;;;;;1.23;0.60;;;7.40;99.90;;;;;;4994720;28;20239;-74
2021/12/29 12:03:53;;;;;;;0.60;0.53;;;7.40;99.90;;;;;;5010298;28;20262;-73
2021/12/29 12:06:44;;;;;;;1.10;0.50;;;7.40;99.90;;;;;;4997263;28;20245;-72
2021/12/29 12:09:17;;;;;;;1.63;1.00;;;7.30;99.90;;;;;;5003696;28;20725;-74
2021/12/29 12:11:55;;;;;;;1.20;0.60;;;7.30;99.90;;;;;;5005988;28;20173;-73
2021/12/29 12:14:32;;;;;;;0.60;0.60;;;7.30;99.90;;;;;;4987921;28;20648;-73
2021/12/29 12:17:19;;;;;;;2.03;0.60;;;7.30;99.90;;;;;;4975112;28;20257;-73
2021/12/29 12:19:57;;;;;;;0.77;0.50;;;7.30;99.90;;;;;;5000961;28;20178;-73
2021/12/29 12:22:23;;;;;;;1.17;0.50;;;7.40;99.90;;;;;;4996271;28;20174;-74
2021/12/29 12:24:52;;;;;;;0.77;0.47;;;7.30;99.90;;;;;;5009049;28;20180;-73
2021/12/29 12:27:33;;;;;;;0.60;0.60;;;7.30;99.90;;;;;;5001154;28;20181;-72
2021/12/29 12:30:11;;;;;;;0.97;0.60;;;7.40;99.90;;;;;;4987115;28;20186;-73
2021/12/29 12:32:43;;;;;;;0.93;0.73;;;7.40;99.90;;;;;;4992476;28;20182;-73
2021/12/29 12:35:09;;;;;;;0.90;0.70;;;7.30;99.90;;;;;;4974316;28;20216;-75
2021/12/29 12:37:41;;;;;;;0.50;0.50;;;7.30;99.90;;;;;;4994334;28;20280;-73
2021/12/29 12:40:20;;;;;;;1.17;0.60;;;7.30;99.90;;;;;;5014216;28;20185;-72
2021/12/29 12:43:00;;;;;;;0.40;0.40;;;7.40;99.90;;;;;;4992976;28;20178;-73
2021/12/29 12:45:33;;;;;;;1.10;0.80;;;7.40;99.90;;;;;;4994669;28;20209;-73
2021/12/29 12:48:32;;;;;;;1.53;0.87;;;7.40;99.90;;;;;;4976121;28;20657;-72
2021/12/29 12:51:02;;;;;;;2.37;1.20;;;7.40;99.90;;;;;;4973098;28;20202;-74
2021/12/29 12:53:38;;;;;;;2.37;1.30;;;7.40;99.90;;;;;;4990858;28;20719;-72
2021/12/29 12:56:12;;;;;;;2.50;1.00;;;7.40;99.90;;;;;;4976777;28;20206;-73
2021/12/29 12:58:41;;;;;;;1.40;0.90;;;7.40;99.90;;;;;;4996533;28;20253;-73
2021/12/29 13:01:15;;;;;;;2.13;1.00;;;7.40;99.90;;;;;;4995403;28;20193;-73
2021/12/29 13:03:42;;;;;;;1.33;1.00;;;7.50;99.90;;;;;;4989434;28;20192;-74
2021/12/29 13:06:13;;;;;;;2.50;1.70;;;7.40;99.90;;;;;;4992704;28;20210;-74